CYQR

Regina International Airport

Regina, Saskatchewan, Canada
METAR CYQR 211300Z 14017G25KT 15SM VCSH FEW055CB BKN150 BKN260 17/12 A3002 RMK CB2AC4CI1 CB W ACC ASOCTD SLP168 DENSITY ALT 2500FT
Observed Flight Rules
Jul-21 @ 13:00 UTC (46 minutes ago) Visual Flight Rules
Wind Visibility Clouds
140° at 17 knots
 Gusting to 25 knots
15 miles
  • Few at 5,500' AGL
  • Broken at 15,000' AGL
  • Broken at 26,000' AGL
Temperatures Readings
Current 17°C / 63°F
Dewpoint 12°C / 54°F
Humidity 73%
Altimeter 30.02" Hg
Pressure 1016.8 hPa
Elevation 577
METAR CYQR 211300Z 14017G25KT 15SM VCSH FEW055CB BKN150 BKN260 17/12 A3002 RMK CB2AC4CI1 CB W ACC ASOCTD SLP168 DENSITY ALT 2500FT
Observed Flight Rules
Jul-21 @ 13:00 UTC
(46 minutes ago)
VFR
Wind Visibility
140° at 17 knots
 Gusting to 25 knots
15 miles
Clouds
  • Few at 5,500' AGL
  • Broken at 15,000' AGL
  • Broken at 26,000' AGL
Temperature Dewpoint
17°C / 63°F 12°C / 54°F
Humidity Altimeter Pressure
73% 30.02" Hg 1016.8 hPa